createdAt,value
2018-08-06T00:00:03.258Z,0
2018-08-06T00:00:43.709Z,0
2018-08-06T00:01:24.119Z,0
2018-08-06T00:03:36.617Z,0
2018-08-06T00:04:17.026Z,0
2018-08-06T00:04:57.436Z,0
2018-08-06T00:05:37.868Z,0
2018-08-06T00:06:18.262Z,0
2018-08-06T00:06:58.662Z,0
2018-08-06T00:07:39.102Z,0
2018-08-06T00:08:19.486Z,0
2018-08-06T00:08:59.897Z,0
2018-08-06T00:09:40.277Z,0
2018-08-06T00:12:13.028Z,0
2018-08-06T00:12:53.423Z,0
2018-08-06T00:13:33.825Z,0
2018-08-06T00:14:14.221Z,0
2018-08-06T00:14:54.636Z,0
2018-08-06T00:15:35.072Z,0
2018-08-06T00:16:15.475Z,0
2018-08-06T00:16:55.882Z,0
2018-08-06T00:17:36.301Z,0
2018-08-06T00:18:16.711Z,0
2018-08-06T00:18:57.162Z,0
2018-08-06T00:19:37.621Z,0
2018-08-06T00:20:18.022Z,0
2018-08-06T00:22:15.734Z,0
2018-08-06T00:22:56.007Z,0
2018-08-06T00:23:36.402Z,0
2018-08-06T00:24:16.801Z,0
2018-08-06T00:24:57.226Z,0
2018-08-06T00:25:37.709Z,0
2018-08-06T00:26:18.090Z,0
2018-08-06T00:26:58.492Z,0
2018-08-06T00:27:38.901Z,0
2018-08-06T00:28:19.313Z,0
2018-08-06T00:28:59.746Z,0
2018-08-06T00:29:40.264Z,0
2018-08-06T00:32:13.005Z,0
2018-08-06T00:32:53.355Z,0
2018-08-06T00:33:33.791Z,0
2018-08-06T00:34:14.227Z,0
2018-08-06T00:36:46.958Z,0
2018-08-06T00:37:27.444Z,0
2018-08-06T00:38:07.875Z,0
2018-08-06T00:38:48.384Z,0
2018-08-06T00:39:28.824Z,0
2018-08-06T00:40:09.199Z,0
2018-08-06T00:40:49.608Z,0
2018-08-06T00:41:29.981Z,0
2018-08-06T00:42:10.404Z,0
2018-08-06T00:42:50.846Z,0
2018-08-06T00:43:31.220Z,0
2018-08-06T00:44:11.634Z,0
2018-08-06T00:44:52.042Z,0
2018-08-06T00:45:32.491Z,0
2018-08-06T00:46:12.838Z,0
2018-08-06T00:46:53.234Z,0
2018-08-06T00:47:33.609Z,0
2018-08-06T00:48:14.014Z,0
2018-08-06T00:48:54.392Z,0
2018-08-06T00:51:12.026Z,0
2018-08-06T00:51:52.427Z,0
2018-08-06T00:52:32.830Z,0
2018-08-06T00:54:30.379Z,0
2018-08-06T00:55:10.769Z,0
2018-08-06T00:55:51.177Z,0
2018-08-06T00:56:31.588Z,0
2018-08-06T00:57:11.978Z,0
2018-08-06T00:57:52.393Z,0
2018-08-06T00:59:49.816Z,0
2018-08-06T01:00:30.274Z,0
2018-08-06T01:01:10.640Z,0
2018-08-06T01:01:51.043Z,0
2018-08-06T01:02:31.485Z,0
2018-08-06T01:03:11.877Z,0
2018-08-06T01:03:52.268Z,0
2018-08-06T01:04:32.644Z,0
2018-08-06T01:05:13.083Z,0
2018-08-06T01:05:53.505Z,0
2018-08-06T01:06:33.931Z,0
2018-08-06T01:07:14.304Z,0
2018-08-06T01:07:54.734Z,0
2018-08-06T01:08:35.140Z,0
2018-08-06T01:09:15.531Z,0
2018-08-06T01:09:55.918Z,0
2018-08-06T01:10:36.321Z,0
2018-08-06T01:11:16.750Z,0
2018-08-06T01:11:57.113Z,0
2018-08-06T01:12:37.512Z,0
2018-08-06T01:13:17.930Z,0
2018-08-06T01:13:58.339Z,0
2018-08-06T01:14:38.722Z,0
2018-08-06T01:15:19.148Z,0
2018-08-06T01:15:59.607Z,0
2018-08-06T01:16:39.963Z,0
2018-08-06T01:18:57.543Z,0
2018-08-06T01:19:37.998Z,0
2018-08-06T01:20:18.358Z,0
2018-08-06T01:22:51.166Z,0
2018-08-06T01:23:31.572Z,0
2018-08-06T01:25:44.193Z,0
2018-08-06T01:26:24.530Z,0
2018-08-06T01:27:04.865Z,0
2018-08-06T01:27:45.279Z,0
2018-08-06T01:28:25.701Z,0
2018-08-06T01:29:06.113Z,0
2018-08-06T01:29:46.530Z,0
2018-08-06T01:30:26.910Z,0
2018-08-06T01:31:07.292Z,0
2018-08-06T01:31:47.725Z,0
2018-08-06T01:32:28.109Z,0
2018-08-06T01:33:08.500Z,0
2018-08-06T01:33:48.881Z,0
2018-08-06T01:34:29.350Z,0
2018-08-06T01:35:09.723Z,0
2018-08-06T01:35:50.154Z,0
2018-08-06T01:36:30.569Z,0
2018-08-06T01:37:10.981Z,0
2018-08-06T01:37:51.392Z,0
2018-08-06T01:38:31.772Z,0
2018-08-06T01:39:12.176Z,0
2018-08-06T01:39:52.600Z,0
2018-08-06T01:40:32.986Z,0
2018-08-06T01:41:13.399Z,0
2018-08-06T01:41:53.772Z,0
2018-08-06T01:42:34.157Z,0
2018-08-06T01:43:14.559Z,0
2018-08-06T01:43:54.983Z,0
2018-08-06T01:44:35.467Z,0
2018-08-06T01:45:15.832Z,0
2018-08-06T01:45:56.220Z,0
2018-08-06T01:46:36.606Z,0
2018-08-06T01:47:17.024Z,0
2018-08-06T01:47:57.422Z,0
2018-08-06T01:48:37.853Z,0
2018-08-06T01:49:18.199Z,0
2018-08-06T01:49:58.644Z,0
2018-08-06T01:50:39.072Z,0
2018-08-06T01:51:19.511Z,0
2018-08-06T01:51:59.900Z,0
2018-08-06T01:54:12.394Z,0
2018-08-06T01:54:52.797Z,0
2018-08-06T01:55:33.203Z,0
2018-08-06T01:56:13.635Z,0
2018-08-06T01:56:54.049Z,0
2018-08-06T01:57:34.439Z,0
2018-08-06T02:00:02.192Z,0
2018-08-06T02:00:43.927Z,0
2018-08-06T02:01:24.303Z,0
2018-08-06T02:02:04.742Z,0
2018-08-06T02:02:45.177Z,0
2018-08-06T02:03:25.587Z,0
2018-08-06T02:04:06.037Z,0
2018-08-06T02:04:46.377Z,0
2018-08-06T02:05:26.766Z,0
2018-08-06T02:06:07.154Z,0
2018-08-06T02:06:47.591Z,0
2018-08-06T02:07:27.952Z,0
2018-08-06T02:08:08.353Z,0
2018-08-06T02:10:41.299Z,0
2018-08-06T02:11:21.623Z,0
2018-08-06T02:12:01.995Z,0
2018-08-06T02:12:42.442Z,0
2018-08-06T02:13:22.773Z,0
2018-08-06T02:14:03.216Z,0
2018-08-06T02:14:43.617Z,0
2018-08-06T02:17:16.462Z,0
2018-08-06T02:17:56.787Z,0
2018-08-06T02:18:37.172Z,0
2018-08-06T02:19:17.608Z,0
2018-08-06T02:19:57.987Z,0
2018-08-06T02:20:38.415Z,0
2018-08-06T02:21:18.802Z,0
2018-08-06T02:21:59.256Z,0
2018-08-06T02:22:39.681Z,0
2018-08-06T02:24:57.275Z,0
2018-08-06T02:25:37.705Z,0
2018-08-06T02:26:18.065Z,0
2018-08-06T02:26:58.478Z,0
2018-08-06T02:27:38.869Z,0
2018-08-06T02:28:19.285Z,0
2018-08-06T02:28:59.704Z,0
2018-08-06T02:29:40.118Z,0
2018-08-06T02:30:20.482Z,0
2018-08-06T02:31:00.884Z,0
2018-08-06T02:31:41.310Z,0
2018-08-06T02:32:21.693Z,0
2018-08-06T02:33:02.097Z,0
2018-08-06T02:33:42.482Z,0
2018-08-06T02:34:22.902Z,0
2018-08-06T02:35:03.314Z,0
2018-08-06T02:35:43.758Z,0
2018-08-06T02:36:24.146Z,0
2018-08-06T02:37:04.562Z,0
2018-08-06T02:37:44.958Z,0
2018-08-06T02:38:25.345Z,0
2018-08-06T02:39:05.794Z,0
2018-08-06T02:39:46.152Z,0
2018-08-06T02:40:26.579Z,0
2018-08-06T02:41:06.974Z,0
2018-08-06T02:41:47.384Z,0
2018-08-06T02:42:27.817Z,0
2018-08-06T02:43:08.192Z,0
2018-08-06T02:43:48.604Z,0
2018-08-06T02:44:29.024Z,0
2018-08-06T02:45:09.448Z,0
2018-08-06T02:45:49.839Z,0
2018-08-06T02:46:30.200Z,0
2018-08-06T02:47:10.647Z,0
2018-08-06T02:47:51.079Z,0
2018-08-06T02:48:31.458Z,0
2018-08-06T02:49:11.901Z,0
2018-08-06T02:51:30.485Z,0
2018-08-06T02:52:10.848Z,0
2018-08-06T02:52:51.250Z,0
2018-08-06T02:53:31.661Z,0
2018-08-06T02:54:12.086Z,0
2018-08-06T02:56:39.986Z,0
2018-08-06T02:57:20.312Z,0
2018-08-06T02:58:00.671Z,0
2018-08-06T03:00:13.325Z,0
2018-08-06T03:00:53.578Z,0
2018-08-06T03:01:33.963Z,0
2018-08-06T03:02:14.361Z,0
2018-08-06T03:02:54.724Z,0
2018-08-06T03:03:35.137Z,0
2018-08-06T03:04:15.540Z,0
2018-08-06T03:06:28.009Z,0
2018-08-06T03:07:08.406Z,0
2018-08-06T03:07:48.822Z,0
2018-08-06T03:08:29.256Z,0
2018-08-06T03:09:09.660Z,0
2018-08-06T03:09:50.056Z,0
2018-08-06T03:10:30.410Z,0
2018-08-06T03:11:10.793Z,0
2018-08-06T03:11:51.231Z,0
2018-08-06T03:12:31.627Z,0
2018-08-06T03:13:12.064Z,0
2018-08-06T03:13:52.479Z,0
2018-08-06T03:14:32.858Z,0
2018-08-06T03:15:13.330Z,0
2018-08-06T03:15:53.740Z,0
2018-08-06T03:16:34.191Z,0
2018-08-06T03:17:14.611Z,0
2018-08-06T03:17:54.974Z,0
2018-08-06T03:18:35.350Z,0
2018-08-06T03:20:53.007Z,4
2018-08-06T03:21:33.413Z,4
2018-08-06T03:22:13.846Z,4
2018-08-06T03:22:54.309Z,4
2018-08-06T03:23:34.658Z,4
2018-08-06T03:24:15.085Z,4
2018-08-06T03:24:55.508Z,4
2018-08-06T03:25:36.022Z,4
2018-08-06T03:26:16.373Z,4
2018-08-06T03:26:56.782Z,4
2018-08-06T03:27:37.207Z,4
2018-08-06T03:28:17.551Z,0
2018-08-06T03:28:57.966Z,0
2018-08-06T03:29:38.534Z,0
2018-08-06T03:30:18.792Z,4
2018-08-06T03:30:59.333Z,4
2018-08-06T03:31:39.616Z,4
2018-08-06T03:32:20.073Z,4
2018-08-06T03:33:00.532Z,4
2018-08-06T03:33:40.852Z,4
2018-08-06T03:34:21.260Z,4
2018-08-06T03:35:01.671Z,4
2018-08-06T03:35:42.132Z,4
2018-08-06T03:36:22.596Z,4
2018-08-06T03:37:02.986Z,4
2018-08-06T03:37:43.463Z,8
2018-08-06T03:38:23.826Z,4
2018-08-06T03:39:04.188Z,8
2018-08-06T03:39:44.649Z,4
2018-08-06T03:40:25.000Z,8
2018-08-06T03:41:05.410Z,8
2018-08-06T03:41:45.808Z,8
2018-08-06T03:42:26.260Z,8
2018-08-06T03:43:06.663Z,8
2018-08-06T03:45:34.822Z,12
2018-08-06T03:46:15.257Z,12
2018-08-06T03:46:55.647Z,16
2018-08-06T03:47:36.048Z,16
2018-08-06T03:48:16.478Z,16
2018-08-06T03:48:56.932Z,20
2018-08-06T03:49:37.278Z,24
2018-08-06T03:50:17.835Z,24
2018-08-06T03:50:58.059Z,24
2018-08-06T03:53:16.926Z,32
2018-08-06T03:53:57.201Z,36
2018-08-06T03:54:37.649Z,36
2018-08-06T03:55:18.085Z,40
2018-08-06T03:55:58.503Z,40
2018-08-06T03:56:38.912Z,44
2018-08-06T03:57:19.404Z,48
2018-08-06T03:57:59.732Z,52
2018-08-06T03:59:57.193Z,64
2018-08-06T04:00:37.634Z,64
2018-08-06T04:01:18.044Z,72
2018-08-06T04:01:58.443Z,76
2018-08-06T04:02:38.844Z,80
2018-08-06T04:04:51.327Z,92
2018-08-06T04:05:31.730Z,100
2018-08-06T04:06:12.197Z,108
2018-08-06T04:06:52.648Z,112
2018-08-06T04:09:21.472Z,132
2018-08-06T04:10:01.880Z,144
2018-08-06T04:10:42.294Z,148
2018-08-06T04:11:22.738Z,156
2018-08-06T04:12:03.200Z,168
2018-08-06T04:12:43.545Z,172
2018-08-06T04:15:16.365Z,212
2018-08-06T04:15:56.750Z,224
2018-08-06T04:16:37.148Z,240
2018-08-06T04:17:17.550Z,252
2018-08-06T04:19:35.130Z,304
2018-08-06T04:20:15.513Z,320
2018-08-06T04:20:55.915Z,332
2018-08-06T04:21:36.348Z,344
2018-08-06T04:22:16.753Z,368
2018-08-06T04:22:57.164Z,384
2018-08-06T04:23:37.626Z,404
2018-08-06T04:24:18.068Z,432
2018-08-06T04:24:58.448Z,452
2018-08-06T04:25:38.879Z,460
2018-08-06T04:26:19.377Z,472
2018-08-06T04:26:59.819Z,492
2018-08-06T05:08:11.354Z,13440
2018-08-06T05:08:51.151Z,14400
2018-08-06T05:09:31.517Z,15008
2018-08-06T05:10:11.912Z,15072
2018-08-06T05:10:53.181Z,14688
2018-08-06T05:11:33.585Z,11680
2018-08-06T05:12:13.961Z,4804
2018-08-06T05:12:54.361Z,6460
2018-08-06T05:13:34.756Z,12512
2018-08-06T05:14:15.160Z,15616
2018-08-06T05:14:55.589Z,16032
2018-08-06T05:15:35.979Z,16384
2018-08-06T05:16:16.386Z,15712
2018-08-06T05:16:56.792Z,15424
2018-08-06T05:17:37.233Z,17312
2018-08-06T05:19:56.098Z,3396
2018-08-06T05:20:36.356Z,3524
2018-08-06T05:21:16.764Z,6900
2018-08-06T05:21:57.127Z,7036
2018-08-06T05:22:37.570Z,6792
2018-08-06T05:23:18.014Z,2460
2018-08-06T05:23:58.417Z,2208
2018-08-06T05:24:39.064Z,2200
2018-08-06T05:25:19.341Z,2248
2018-08-06T05:26:00.957Z,3320
2018-08-06T05:26:41.260Z,2404
2018-08-06T05:27:21.782Z,2488
2018-08-06T05:28:02.484Z,2680
2018-08-06T05:28:42.742Z,5720
2018-08-06T05:29:23.131Z,3948
2018-08-06T05:30:03.657Z,3344
2018-08-06T05:30:43.967Z,12548
2018-08-06T05:31:24.884Z,9084
2018-08-06T05:32:05.177Z,5080
2018-08-06T05:32:45.541Z,3696
2018-08-06T05:33:26.070Z,3236
2018-08-06T05:34:06.602Z,8600
2018-08-06T05:34:47.027Z,21088
2018-08-06T05:35:28.394Z,15392
2018-08-06T05:36:08.743Z,3196
2018-08-06T05:36:49.209Z,3792
2018-08-06T05:37:29.732Z,2880
2018-08-06T05:38:10.172Z,3020
2018-08-06T05:38:50.571Z,3544
2018-08-06T05:41:51.857Z,18560
2018-08-06T05:42:32.227Z,29792
2018-08-06T05:43:12.635Z,31040
2018-08-06T05:43:53.065Z,30240
2018-08-06T05:46:10.748Z,31040
2018-08-06T05:46:51.136Z,31616
2018-08-06T05:47:31.528Z,32096
2018-08-06T05:48:11.944Z,31552
2018-08-06T05:48:52.332Z,31584
2018-08-06T05:49:32.783Z,32384
2018-08-06T05:50:13.290Z,32320
2018-08-06T05:50:53.676Z,31392
2018-08-06T05:51:34.164Z,30464
2018-08-06T05:52:15.397Z,30720
2018-08-06T05:52:55.957Z,32480
2018-08-06T05:53:36.229Z,32800
2018-08-06T05:54:16.591Z,32704
2018-08-06T05:54:57.028Z,32096
2018-08-06T05:55:37.489Z,32064
2018-08-06T05:56:17.921Z,32192
2018-08-06T05:56:58.436Z,32704
2018-08-06T05:57:39.877Z,31616
2018-08-06T05:58:19.814Z,31360
2018-08-06T05:59:00.095Z,31392
2018-08-06T05:59:40.985Z,32192
2018-08-06T06:00:22.274Z,33088
2018-08-06T06:01:02.838Z,33568
2018-08-06T06:01:43.296Z,33536
2018-08-06T06:02:24.231Z,35136
2018-08-06T06:03:04.831Z,35712
2018-08-06T06:03:46.309Z,35872
2018-08-06T06:04:27.395Z,36064
2018-08-06T06:05:09.058Z,36288
2018-08-06T06:05:49.632Z,36256
2018-08-06T06:06:30.618Z,36288
2018-08-06T06:07:11.914Z,34848
2018-08-06T06:07:53.782Z,35712
2018-08-06T06:08:34.183Z,35776
2018-08-06T06:09:16.117Z,37536
2018-08-06T06:09:57.418Z,37344
2018-08-06T06:10:38.007Z,37024
2018-08-06T06:11:18.493Z,37888
2018-08-06T06:12:00.289Z,38976
2018-08-06T06:12:40.339Z,38912
2018-08-06T06:13:21.590Z,37952
2018-08-06T06:14:02.286Z,38688
2018-08-06T06:14:43.119Z,39232
2018-08-06T06:15:24.109Z,40032
2018-08-06T06:16:04.649Z,41696
2018-08-06T06:16:45.423Z,42336
2018-08-06T06:17:26.449Z,40544
2018-08-06T06:18:07.979Z,40736
2018-08-06T06:18:47.979Z,40576
2018-08-06T06:19:29.201Z,40896
2018-08-06T06:20:09.751Z,42656
2018-08-06T06:20:50.327Z,41376
2018-08-06T06:21:31.496Z,41856
2018-08-06T06:22:13.330Z,42976
2018-08-06T06:22:54.492Z,43168
2018-08-06T06:23:35.033Z,42464
2018-08-06T06:24:15.473Z,42624
2018-08-06T06:24:55.939Z,43040
2018-08-06T06:25:37.297Z,43136
2018-08-06T06:26:17.140Z,42816
2018-08-06T06:27:05.406Z,43008
2018-08-06T06:27:45.896Z,43648
2018-08-06T06:28:27.587Z,45152
2018-08-06T06:29:08.179Z,45408
2018-08-06T06:29:49.870Z,46976
2018-08-06T06:30:30.813Z,45376
2018-08-06T06:31:11.152Z,44992
2018-08-06T06:31:52.936Z,45280
2018-08-06T06:32:36.844Z,48576
2018-08-06T06:33:17.204Z,49152
2018-08-06T06:33:58.342Z,50432
2018-08-06T06:34:38.895Z,49216
2018-08-06T06:35:19.551Z,49344
2018-08-06T06:36:00.659Z,50496
2018-08-06T06:36:41.678Z,51936
2018-08-06T06:37:22.176Z,52928
2018-08-06T06:38:03.729Z,51872
2018-08-06T06:38:44.442Z,51840
2018-08-06T06:39:24.861Z,49696
2018-08-06T06:40:05.271Z,45312
2018-08-06T06:40:45.824Z,38656
2018-08-06T06:41:28.056Z,38144
2018-08-06T06:42:08.357Z,38240
2018-08-06T06:42:49.292Z,38176
2018-08-06T06:43:29.923Z,35648
2018-08-06T06:44:10.689Z,33728
2018-08-06T06:44:50.951Z,29056
2018-08-06T06:45:31.872Z,25664
2018-08-06T06:46:12.299Z,22304
2018-08-06T06:46:52.877Z,25408
2018-08-06T06:47:34.325Z,32384
2018-08-06T06:48:14.491Z,36128
2018-08-06T06:48:55.165Z,33728
2018-08-06T06:49:36.537Z,32352
2018-08-06T06:50:17.599Z,32064
2018-08-06T06:50:59.559Z,31456
2018-08-06T06:51:39.883Z,29728
2018-08-06T06:52:21.330Z,29504
2018-08-06T06:53:02.407Z,25280
2018-08-06T06:58:05.045Z,37280
2018-08-06T06:59:01.422Z,36448
2018-08-06T06:59:55.694Z,37280
2018-08-06T07:00:59.915Z,37152
2018-08-06T07:01:56.803Z,37216
2018-08-06T07:02:52.862Z,38688
2018-08-06T07:03:50.973Z,40352
2018-08-06T07:04:45.670Z,42624
2018-08-06T07:05:48.789Z,43936
2018-08-06T07:06:44.677Z,44704
2018-08-06T07:07:40.045Z,44096
2018-08-06T07:08:41.025Z,44608
2018-08-06T07:09:37.887Z,45920
2018-08-06T07:17:50.213Z,24320
2018-08-06T07:18:44.538Z,22400
2018-08-06T07:19:37.491Z,21728
2018-08-06T07:20:34.338Z,20992
2018-08-06T07:21:28.536Z,20672
2018-08-06T07:22:21.414Z,20224
2018-08-06T07:23:14.685Z,20224
2018-08-06T07:24:08.787Z,19776
2018-08-06T07:25:05.640Z,18304
2018-08-06T07:25:59.714Z,18272
2018-08-06T07:26:56.208Z,18112
2018-08-06T07:27:52.243Z,17760
2018-08-06T07:28:49.667Z,18304
2018-08-06T07:29:42.872Z,19456
2018-08-06T07:30:35.564Z,19232
2018-08-06T07:31:27.471Z,14032
2018-08-06T07:32:23.048Z,7940
2018-08-06T07:33:16.596Z,6328
2018-08-06T07:34:11.683Z,6232
2018-08-06T07:35:04.350Z,6064
2018-08-06T07:35:44.865Z,5820
2018-08-06T07:36:27.012Z,5528
2018-08-06T07:49:58.325Z,3468
2018-08-06T07:50:39.433Z,3408
2018-08-06T07:51:20.260Z,3312
2018-08-06T07:52:01.619Z,3252
2018-08-06T07:52:43.233Z,3176
2018-08-06T07:53:24.952Z,3136
2018-08-06T07:54:05.487Z,3088
2018-08-06T07:54:46.173Z,3056
2018-08-06T07:55:26.981Z,3020
2018-08-06T07:56:07.541Z,2996
2018-08-06T07:56:48.650Z,2960
2018-08-06T07:57:29.057Z,2948
2018-08-06T07:58:09.581Z,2916
2018-08-06T07:58:51.933Z,2888
2018-08-06T07:59:32.242Z,2852
2018-08-06T08:00:13.758Z,2836
2018-08-06T08:00:54.472Z,2804
2018-08-06T08:01:35.038Z,2772
2018-08-06T08:02:15.955Z,2740
2018-08-06T08:02:56.954Z,2716
2018-08-06T08:03:37.986Z,2688
2018-08-06T08:04:18.467Z,2660
2018-08-06T08:04:59.317Z,2632
2018-08-06T08:05:39.918Z,2612
2018-08-06T08:06:20.424Z,2596
2018-08-06T08:07:01.199Z,2564
2018-08-06T08:07:42.766Z,2536
2018-08-06T08:08:24.862Z,2512
2018-08-06T08:09:05.576Z,2484
2018-08-06T08:09:46.396Z,2464
2018-08-06T08:10:26.958Z,2448
2018-08-06T08:11:07.584Z,2432
2018-08-06T08:11:48.220Z,2408
2018-08-06T08:12:29.033Z,2400
2018-08-06T08:13:10.829Z,2392
2018-08-06T08:13:52.732Z,2376
2018-08-06T08:14:34.557Z,2364
2018-08-06T08:15:16.438Z,2356
2018-08-06T08:15:56.399Z,2344
2018-08-06T08:16:36.932Z,2332
2018-08-06T08:17:17.436Z,2324
2018-08-06T08:17:58.968Z,2316
2018-08-06T08:18:38.994Z,2312
2018-08-06T08:19:21.248Z,2300
2018-08-06T08:20:03.038Z,2288
2018-08-06T08:20:43.953Z,2284
2018-08-06T08:21:24.098Z,2276
2018-08-06T08:22:05.690Z,2272
2018-08-06T08:22:45.690Z,2256
2018-08-06T08:23:26.250Z,2256
2018-08-06T08:24:07.008Z,2252
2018-08-06T08:24:48.475Z,2248
2018-08-06T08:25:28.521Z,2244
2018-08-06T08:26:09.368Z,2236
2018-08-06T08:26:49.951Z,2208
2018-08-06T08:27:31.617Z,2148
2018-08-06T08:28:13.382Z,2108
2018-08-06T08:28:53.984Z,2096
2018-08-06T08:29:34.555Z,2060
2018-08-06T08:30:15.052Z,2112
2018-08-06T08:30:56.714Z,2100
2018-08-06T08:31:37.315Z,2188
2018-08-06T08:32:18.982Z,2244
2018-08-06T08:32:59.619Z,2012
2018-08-06T08:33:39.853Z,2180
2018-08-06T08:34:21.257Z,2392
2018-08-06T08:35:00.951Z,2452
2018-08-06T08:35:42.458Z,2496
2018-08-06T08:36:24.256Z,2540
2018-08-06T08:37:05.672Z,2592
2018-08-06T08:37:46.525Z,2656
2018-08-06T08:38:32.227Z,2720
2018-08-06T08:39:13.585Z,2792
2018-08-06T08:39:56.362Z,2600
2018-08-06T08:40:37.732Z,2772
2018-08-06T08:41:21.363Z,2636
2018-08-06T08:42:01.735Z,2276
2018-08-06T08:42:43.884Z,2168
2018-08-06T08:43:25.098Z,2048
2018-08-06T08:44:07.558Z,2012
2018-08-06T08:44:52.204Z,2084
2018-08-06T08:45:32.924Z,2416
2018-08-06T08:46:14.085Z,2508
2018-08-06T08:46:55.495Z,2492
2018-08-06T08:47:37.584Z,2476
2018-08-06T08:48:19.002Z,2464
2018-08-06T08:49:00.139Z,2452
2018-08-06T08:49:40.524Z,2436
2018-08-06T08:50:23.474Z,2352
2018-08-06T08:51:03.774Z,2008
2018-08-06T08:51:44.696Z,1884
2018-08-06T08:52:26.505Z,1824
2018-08-06T08:53:07.148Z,1956
2018-08-06T08:53:47.980Z,1904
2018-08-06T08:54:32.228Z,2280
2018-08-06T08:55:13.617Z,2288
2018-08-06T08:55:54.480Z,2288
2018-08-06T08:56:35.771Z,2280
2018-08-06T08:57:16.433Z,2284
2018-08-06T08:57:56.885Z,2276
2018-08-06T08:58:38.227Z,2160
2018-08-06T08:59:19.737Z,1960
2018-08-06T09:00:00.406Z,1872
2018-08-06T09:00:40.996Z,1880
2018-08-06T09:01:21.993Z,1916
2018-08-06T09:02:03.473Z,1908
2018-08-06T09:02:44.831Z,1804
2018-08-06T09:03:25.567Z,1740
2018-08-06T09:04:06.716Z,1808
2018-08-06T09:04:47.977Z,1944
2018-08-06T09:05:28.428Z,1956
2018-08-06T09:06:09.246Z,1852
2018-08-06T09:06:50.431Z,1860
2018-08-06T09:07:32.432Z,1884
2018-08-06T09:08:12.541Z,1900
2018-08-06T09:08:53.091Z,2044
2018-08-06T09:09:37.000Z,1932
2018-08-06T09:10:17.034Z,2060
2018-08-06T09:10:58.039Z,2132
2018-08-06T09:11:40.402Z,2324
2018-08-06T09:12:24.446Z,2380
2018-08-06T09:15:12.722Z,2316
2018-08-06T09:16:05.964Z,2188
2018-08-06T09:17:04.911Z,2396
2018-08-06T09:18:01.171Z,2588
2018-08-06T09:18:56.489Z,2588
2018-08-06T09:19:52.262Z,2696
2018-08-06T09:20:47.803Z,2420
2018-08-06T09:23:24.125Z,2668
2018-08-06T09:24:22.675Z,2880
2018-08-06T09:25:20.031Z,3008
2018-08-06T09:26:15.976Z,3080
2018-08-06T09:27:13.525Z,3176
2018-08-06T09:28:11.484Z,3248
2018-08-06T09:34:35.827Z,3080
2018-08-06T09:37:20.290Z,2920
2018-08-06T09:38:20.809Z,2860
2018-08-06T09:39:13.944Z,2844
2018-08-06T09:43:32.670Z,2548
2018-08-06T09:48:00.424Z,2564
2018-08-06T09:48:41.292Z,2520
2018-08-06T09:49:21.539Z,2500
2018-08-06T09:50:01.886Z,2444
2018-08-06T09:50:45.339Z,2416
2018-08-06T09:51:26.852Z,2476
2018-08-06T09:52:07.233Z,2436
2018-08-06T09:52:47.766Z,2484
2018-08-06T09:53:28.845Z,2484
2018-08-06T09:54:09.686Z,2472
2018-08-06T09:54:50.520Z,2448
2018-08-06T09:55:35.592Z,2420
2018-08-06T09:56:15.517Z,2400
2018-08-06T09:56:56.409Z,2332
2018-08-06T09:57:37.136Z,2344
2018-08-06T09:58:18.089Z,2324
2018-08-06T09:58:59.202Z,2300
2018-08-06T09:59:42.962Z,2284
2018-08-06T10:00:30.810Z,2256
2018-08-06T10:01:10.791Z,2232
2018-08-06T10:01:51.738Z,2212
2018-08-06T10:02:32.861Z,2196
2018-08-06T10:03:13.342Z,2188
2018-08-06T10:03:56.329Z,2176
2018-08-06T10:04:37.608Z,2160
2018-08-06T10:05:18.594Z,2156
2018-08-06T10:05:59.484Z,2148
2018-08-06T10:06:41.777Z,2156
2018-08-06T10:07:21.462Z,2164
2018-08-06T10:08:02.610Z,2172
2018-08-06T10:08:43.845Z,2172
2018-08-06T10:09:24.179Z,2156
2018-08-06T10:10:06.087Z,2148
2018-08-06T10:10:48.911Z,2140
2018-08-06T10:11:29.380Z,2120
2018-08-06T10:12:11.287Z,2100
2018-08-06T10:12:54.672Z,2080
2018-08-06T10:13:38.927Z,2056
2018-08-06T10:14:21.611Z,2028
2018-08-06T10:15:04.389Z,2008
2018-08-06T10:15:46.131Z,1984
2018-08-06T10:16:29.285Z,1964
2018-08-06T10:21:17.507Z,1868
2018-08-06T10:22:12.858Z,1852
2018-08-06T10:24:25.731Z,1828
2018-08-06T10:27:27.050Z,1792
2018-08-06T10:28:23.444Z,1780
2018-08-06T11:13:33.203Z,1580
2018-08-06T11:14:36.319Z,1576
2018-08-06T11:15:21.284Z,1576
2018-08-06T11:16:03.921Z,1576
2018-08-06T11:16:43.749Z,1576
2018-08-06T11:17:24.251Z,1580
2018-08-06T11:18:12.490Z,1576
2018-08-06T11:19:22.528Z,1568
2018-08-06T11:20:03.096Z,1568
2018-08-06T11:20:43.617Z,1560
2018-08-06T11:21:24.224Z,1560
2018-08-06T11:22:05.664Z,1552
2018-08-06T11:22:45.523Z,1552
2018-08-06T11:23:26.270Z,1548
2018-08-06T11:24:12.193Z,1548
2018-08-06T11:25:13.993Z,1540
2018-08-06T11:25:56.257Z,1540
2018-08-06T11:44:44.515Z,1488
2018-08-06T11:48:15.285Z,1476
2018-08-06T11:50:29.336Z,1460
2018-08-06T11:51:28.534Z,1460
2018-08-06T11:52:39.532Z,1456
2018-08-06T12:00:51.315Z,1440
2018-08-06T12:03:25.400Z,1436
2018-08-06T12:04:27.338Z,1440
2018-08-06T12:08:55.136Z,1428
2018-08-06T12:09:37.130Z,1424
2018-08-06T12:10:17.987Z,1424
2018-08-06T12:10:59.425Z,1424
2018-08-06T12:11:41.594Z,1424
2018-08-06T12:12:26.629Z,1420
2018-08-06T12:13:07.376Z,1420
2018-08-06T12:15:29.140Z,1420
2018-08-06T12:16:11.506Z,1416
2018-08-06T12:16:52.550Z,1412
2018-08-06T12:17:35.488Z,1412
2018-08-06T12:18:20.387Z,1416
2018-08-06T12:19:01.181Z,1412
2018-08-06T12:19:42.143Z,1416
2018-08-06T12:20:23.970Z,1412
2018-08-06T12:21:04.782Z,1412
2018-08-06T12:21:45.342Z,1408
2018-08-06T12:22:28.934Z,1408
2018-08-06T12:24:45.136Z,1404
2018-08-06T12:27:15.127Z,1400
2018-08-06T12:28:11.126Z,1400
2018-08-06T12:31:09.352Z,1396
2018-08-06T12:31:49.758Z,1396
2018-08-06T12:32:30.632Z,1396
2018-08-06T12:33:12.865Z,1392
2018-08-06T12:33:56.650Z,1392
2018-08-06T12:34:36.522Z,1388
2018-08-06T12:35:17.326Z,1388
2018-08-06T12:35:57.794Z,1388
2018-08-06T12:36:38.251Z,1388
2018-08-06T12:37:18.927Z,1384
2018-08-06T12:37:59.387Z,1384
2018-08-06T12:38:40.837Z,1384
2018-08-06T12:39:20.637Z,1384
2018-08-06T12:40:02.251Z,1384
2018-08-06T12:40:42.880Z,1380
2018-08-06T12:41:23.256Z,1376
2018-08-06T12:42:03.415Z,1376
2018-08-06T12:42:44.185Z,1372
2018-08-06T12:43:25.247Z,1376
2018-08-06T12:44:05.431Z,1372
2018-08-06T12:44:45.953Z,1376
2018-08-06T12:45:26.400Z,1376
2018-08-06T12:46:07.201Z,1372
2018-08-06T12:46:48.255Z,1376
2018-08-06T12:47:29.346Z,1372
2018-08-06T12:48:09.936Z,1376
2018-08-06T12:48:50.664Z,1376
2018-08-06T12:49:33.114Z,1372
2018-08-06T12:50:15.340Z,1372
2018-08-06T12:50:56.673Z,1376
2018-08-06T12:51:38.298Z,1372
2018-08-06T12:52:22.432Z,1376
2018-08-06T12:53:03.297Z,1372
2018-08-06T12:53:43.420Z,1368
2018-08-06T12:54:24.970Z,1372
2018-08-06T12:55:06.659Z,1372
2018-08-06T12:55:48.875Z,1368
2018-08-06T12:56:33.481Z,1368
2018-08-06T12:57:25.753Z,1368
2018-08-06T12:58:06.272Z,1364
2018-08-06T12:58:47.646Z,1360
2018-08-06T12:59:28.315Z,1360
2018-08-06T13:00:09.355Z,1360
2018-08-06T13:00:51.992Z,1360
2018-08-06T13:01:32.916Z,1356
2018-08-06T13:02:13.474Z,1360
2018-08-06T13:02:54.105Z,1360
2018-08-06T13:03:35.508Z,1356
2018-08-06T13:04:17.805Z,1360
2018-08-06T13:04:59.398Z,1360
2018-08-06T13:05:41.754Z,1356
2018-08-06T13:06:22.434Z,1356
2018-08-06T13:07:03.254Z,1356
2018-08-06T13:07:45.337Z,1356
2018-08-06T13:08:29.962Z,1352
2018-08-06T13:09:09.775Z,1356
2018-08-06T13:09:50.399Z,1356
2018-08-06T13:10:31.096Z,1348
2018-08-06T13:11:11.962Z,1352
2018-08-06T13:11:52.623Z,1344
2018-08-06T13:12:33.517Z,1344
2018-08-06T13:13:13.694Z,1340
2018-08-06T13:13:54.402Z,1344
2018-08-06T13:14:34.837Z,1344
2018-08-06T13:15:15.420Z,1344
2018-08-06T13:15:56.202Z,1344
2018-08-06T13:16:37.024Z,1344
2018-08-06T13:17:18.439Z,1348
2018-08-06T13:17:58.441Z,1344
2018-08-06T13:18:40.290Z,1344
2018-08-06T13:19:21.262Z,1340
2018-08-06T13:20:01.073Z,1336
2018-08-06T13:20:42.564Z,1336
2018-08-06T13:21:24.204Z,1340
2018-08-06T13:22:06.634Z,1336
2018-08-06T13:22:47.529Z,1332
2018-08-06T13:23:28.550Z,1336
2018-08-06T13:24:10.000Z,1336
2018-08-06T13:24:50.055Z,1336
2018-08-06T13:25:31.500Z,1336
2018-08-06T13:26:12.999Z,1332
2018-08-06T13:26:52.822Z,1332